sensor_id;sensor_type;location;lat;lon;timestamp;P1;durP1;ratioP1;P2;durP2;ratioP2
29906;SDS011;16776;50.958;10.994;2023-11-21T00:00:40;1.35;;;0.60;;
29906;SDS011;16776;50.958;10.994;2023-11-21T00:03:06;2.28;;;0.45;;
29906;SDS011;16776;50.958;10.994;2023-11-21T00:05:34;0.50;;;0.20;;
29906;SDS011;16776;50.958;10.994;2023-11-21T00:08:01;0.98;;;0.40;;
29906;SDS011;16776;50.958;10.994;2023-11-21T00:10:27;1.30;;;0.40;;
29906;SDS011;16776;50.958;10.994;2023-11-21T00:12:54;0.30;;;0.30;;
29906;SDS011;16776;50.958;10.994;2023-11-21T00:15:21;0.47;;;0.32;;
29906;SDS011;16776;50.958;10.994;2023-11-21T00:17:48;0.77;;;0.40;;
29906;SDS011;16776;50.958;10.994;2023-11-21T00:20:14;0.20;;;0.20;;
29906;SDS011;16776;50.958;10.994;2023-11-21T00:22:42;0.35;;;0.30;;
29906;SDS011;16776;50.958;10.994;2023-11-21T00:25:10;0.57;;;0.50;;
29906;SDS011;16776;50.958;10.994;2023-11-21T00:27:36;1.45;;;0.50;;
29906;SDS011;16776;50.958;10.994;2023-11-21T00:30:04;0.40;;;0.40;;
29906;SDS011;16776;50.958;10.994;2023-11-21T00:32:33;0.35;;;0.35;;
29906;SDS011;16776;50.958;10.994;2023-11-21T00:35:01;0.88;;;0.60;;
29906;SDS011;16776;50.958;10.994;2023-11-21T00:37:28;1.40;;;0.40;;
29906;SDS011;16776;50.958;10.994;2023-11-21T00:39:57;0.60;;;0.40;;
29906;SDS011;16776;50.958;10.994;2023-11-21T00:42:24;0.57;;;0.50;;
29906;SDS011;16776;50.958;10.994;2023-11-21T00:44:50;0.45;;;0.40;;
29906;SDS011;16776;50.958;10.994;2023-11-21T00:47:17;0.43;;;0.40;;
29906;SDS011;16776;50.958;10.994;2023-11-21T00:49:43;2.55;;;0.38;;
29906;SDS011;16776;50.958;10.994;2023-11-21T00:52:10;0.88;;;0.40;;
29906;SDS011;16776;50.958;10.994;2023-11-21T00:54:36;0.50;;;0.40;;
29906;SDS011;16776;50.958;10.994;2023-11-21T00:57:04;0.30;;;0.30;;
29906;SDS011;16776;50.958;10.994;2023-11-21T00:59:31;0.40;;;0.40;;
29906;SDS011;16776;50.958;10.994;2023-11-21T01:01:58;0.30;;;0.30;;
29906;SDS011;16776;50.958;10.994;2023-11-21T01:04:26;0.50;;;0.50;;
29906;SDS011;16776;50.958;10.994;2023-11-21T01:06:53;0.30;;;0.30;;
29906;SDS011;16776;50.958;10.994;2023-11-21T01:09:20;0.60;;;0.50;;
29906;SDS011;16776;50.958;10.994;2023-11-21T01:11:46;0.35;;;0.35;;
29906;SDS011;16776;50.958;10.994;2023-11-21T01:14:14;0.55;;;0.28;;
29906;SDS011;16776;50.958;10.994;2023-11-21T01:16:42;1.38;;;0.40;;
29906;SDS011;16776;50.958;10.994;2023-11-21T01:19:09;0.40;;;0.40;;
29906;SDS011;16776;50.958;10.994;2023-11-21T01:21:35;1.20;;;0.40;;
29906;SDS011;16776;50.958;10.994;2023-11-21T01:24:02;0.47;;;0.40;;
29906;SDS011;16776;50.958;10.994;2023-11-21T01:26:32;0.40;;;0.40;;
29906;SDS011;16776;50.958;10.994;2023-11-21T01:28:58;0.30;;;0.30;;
29906;SDS011;16776;50.958;10.994;2023-11-21T01:31:26;0.43;;;0.25;;
29906;SDS011;16776;50.958;10.994;2023-11-21T01:33:54;0.35;;;0.35;;
29906;SDS011;16776;50.958;10.994;2023-11-21T01:36:21;1.00;;;0.40;;
29906;SDS011;16776;50.958;10.994;2023-11-21T01:38:47;0.40;;;0.22;;
29906;SDS011;16776;50.958;10.994;2023-11-21T01:41:14;0.30;;;0.30;;
29906;SDS011;16776;50.958;10.994;2023-11-21T01:43:41;0.55;;;0.40;;
29906;SDS011;16776;50.958;10.994;2023-11-21T01:46:08;0.40;;;0.40;;
29906;SDS011;16776;50.958;10.994;2023-11-21T01:48:36;0.52;;;0.47;;
29906;SDS011;16776;50.958;10.994;2023-11-21T01:51:03;0.40;;;0.40;;
29906;SDS011;16776;50.958;10.994;2023-11-21T01:53:30;1.38;;;0.50;;
29906;SDS011;16776;50.958;10.994;2023-11-21T01:55:56;0.90;;;0.40;;
29906;SDS011;16776;50.958;10.994;2023-11-21T01:58:24;0.43;;;0.40;;
29906;SDS011;16776;50.958;10.994;2023-11-21T02:00:51;1.58;;;0.32;;
29906;SDS011;16776;50.958;10.994;2023-11-21T02:03:20;1.17;;;0.30;;
29906;SDS011;16776;50.958;10.994;2023-11-21T02:05:47;0.35;;;0.35;;
29906;SDS011;16776;50.958;10.994;2023-11-21T02:08:14;0.40;;;0.40;;
29906;SDS011;16776;50.958;10.994;2023-11-21T02:10:40;0.93;;;0.40;;
29906;SDS011;16776;50.958;10.994;2023-11-21T02:13:07;0.60;;;0.32;;
29906;SDS011;16776;50.958;10.994;2023-11-21T02:15:34;0.77;;;0.50;;
29906;SDS011;16776;50.958;10.994;2023-11-21T02:18:00;0.50;;;0.32;;
29906;SDS011;16776;50.958;10.994;2023-11-21T02:20:28;0.40;;;0.40;;
29906;SDS011;16776;50.958;10.994;2023-11-21T02:22:56;0.60;;;0.30;;
29906;SDS011;16776;50.958;10.994;2023-11-21T02:25:24;0.40;;;0.40;;
29906;SDS011;16776;50.958;10.994;2023-11-21T02:27:52;0.60;;;0.50;;
29906;SDS011;16776;50.958;10.994;2023-11-21T02:30:20;0.95;;;0.60;;
29906;SDS011;16776;50.958;10.994;2023-11-21T02:32:46;0.80;;;0.40;;
29906;SDS011;16776;50.958;10.994;2023-11-21T02:35:13;0.52;;;0.52;;
29906;SDS011;16776;50.958;10.994;2023-11-21T02:37:40;1.17;;;0.82;;
29906;SDS011;16776;50.958;10.994;2023-11-21T02:40:10;0.95;;;0.50;;
29906;SDS011;16776;50.958;10.994;2023-11-21T02:42:38;2.00;;;0.57;;
29906;SDS011;16776;50.958;10.994;2023-11-21T02:45:06;0.95;;;0.45;;
29906;SDS011;16776;50.958;10.994;2023-11-21T02:47:33;2.35;;;0.50;;
29906;SDS011;16776;50.958;10.994;2023-11-21T02:50:00;1.05;;;0.57;;
29906;SDS011;16776;50.958;10.994;2023-11-21T02:52:26;0.50;;;0.50;;
29906;SDS011;16776;50.958;10.994;2023-11-21T02:54:53;1.27;;;0.68;;
29906;SDS011;16776;50.958;10.994;2023-11-21T02:57:21;1.10;;;0.60;;
29906;SDS011;16776;50.958;10.994;2023-11-21T02:59:47;0.90;;;0.50;;
29906;SDS011;16776;50.958;10.994;2023-11-21T03:02:14;0.55;;;0.40;;
29906;SDS011;16776;50.958;10.994;2023-11-21T03:04:40;0.63;;;0.63;;
29906;SDS011;16776;50.958;10.994;2023-11-21T03:07:08;0.50;;;0.50;;
29906;SDS011;16776;50.958;10.994;2023-11-21T03:09:35;1.08;;;0.57;;
29906;SDS011;16776;50.958;10.994;2023-11-21T03:12:02;0.98;;;0.82;;
29906;SDS011;16776;50.958;10.994;2023-11-21T03:14:30;0.60;;;0.50;;
29906;SDS011;16776;50.958;10.994;2023-11-21T03:16:56;0.95;;;0.73;;
29906;SDS011;16776;50.958;10.994;2023-11-21T03:19:23;0.75;;;0.73;;
29906;SDS011;16776;50.958;10.994;2023-11-21T03:21:49;0.40;;;0.40;;
29906;SDS011;16776;50.958;10.994;2023-11-21T03:24:18;1.05;;;0.70;;
29906;SDS011;16776;50.958;10.994;2023-11-21T03:26:44;1.70;;;0.60;;
29906;SDS011;16776;50.958;10.994;2023-11-21T03:29:11;1.30;;;0.60;;
29906;SDS011;16776;50.958;10.994;2023-11-21T03:31:40;0.68;;;0.55;;
29906;SDS011;16776;50.958;10.994;2023-11-21T03:34:11;0.38;;;0.30;;
29906;SDS011;16776;50.958;10.994;2023-11-21T03:36:42;0.40;;;0.40;;
29906;SDS011;16776;50.958;10.994;2023-11-21T03:39:09;0.63;;;0.50;;
29906;SDS011;16776;50.958;10.994;2023-11-21T03:41:36;0.40;;;0.40;;
29906;SDS011;16776;50.958;10.994;2023-11-21T03:44:02;0.50;;;0.50;;
29906;SDS011;16776;50.958;10.994;2023-11-21T03:46:29;0.57;;;0.52;;
29906;SDS011;16776;50.958;10.994;2023-11-21T03:48:57;0.40;;;0.40;;
29906;SDS011;16776;50.958;10.994;2023-11-21T03:51:23;0.70;;;0.50;;
29906;SDS011;16776;50.958;10.994;2023-11-21T03:53:50;0.68;;;0.50;;
29906;SDS011;16776;50.958;10.994;2023-11-21T03:56:16;1.27;;;0.50;;
29906;SDS011;16776;50.958;10.994;2023-11-21T03:58:43;0.40;;;0.40;;
29906;SDS011;16776;50.958;10.994;2023-11-21T04:01:10;0.45;;;0.45;;
29906;SDS011;16776;50.958;10.994;2023-11-21T04:03:36;0.95;;;0.40;;
29906;SDS011;16776;50.958;10.994;2023-11-21T04:06:05;1.02;;;0.50;;
29906;SDS011;16776;50.958;10.994;2023-11-21T04:08:32;0.40;;;0.40;;
29906;SDS011;16776;50.958;10.994;2023-11-21T04:10:59;0.85;;;0.60;;
29906;SDS011;16776;50.958;10.994;2023-11-21T04:13:26;1.25;;;0.50;;
29906;SDS011;16776;50.958;10.994;2023-11-21T04:15:52;0.93;;;0.52;;
29906;SDS011;16776;50.958;10.994;2023-11-21T04:18:20;0.65;;;0.60;;
29906;SDS011;16776;50.958;10.994;2023-11-21T04:20:48;0.50;;;0.45;;
29906;SDS011;16776;50.958;10.994;2023-11-21T04:23:16;0.45;;;0.40;;
29906;SDS011;16776;50.958;10.994;2023-11-21T04:25:43;0.40;;;0.40;;
29906;SDS011;16776;50.958;10.994;2023-11-21T04:28:08;0.77;;;0.55;;
29906;SDS011;16776;50.958;10.994;2023-11-21T04:30:35;1.10;;;0.50;;
29906;SDS011;16776;50.958;10.994;2023-11-21T04:33:01;0.60;;;0.60;;
29906;SDS011;16776;50.958;10.994;2023-11-21T04:35:28;0.47;;;0.40;;
29906;SDS011;16776;50.958;10.994;2023-11-21T04:37:54;1.35;;;0.65;;
29906;SDS011;16776;50.958;10.994;2023-11-21T04:40:23;0.65;;;0.65;;
29906;SDS011;16776;50.958;10.994;2023-11-21T04:42:51;0.60;;;0.40;;
29906;SDS011;16776;50.958;10.994;2023-11-21T04:45:17;0.50;;;0.50;;
29906;SDS011;16776;50.958;10.994;2023-11-21T04:47:44;1.17;;;0.68;;
29906;SDS011;16776;50.958;10.994;2023-11-21T04:50:10;0.80;;;0.70;;
29906;SDS011;16776;50.958;10.994;2023-11-21T04:52:37;0.60;;;0.50;;
29906;SDS011;16776;50.958;10.994;2023-11-21T04:55:04;1.08;;;0.80;;
29906;SDS011;16776;50.958;10.994;2023-11-21T04:57:33;0.50;;;0.50;;
29906;SDS011;16776;50.958;10.994;2023-11-21T04:59:59;0.70;;;0.50;;
29906;SDS011;16776;50.958;10.994;2023-11-21T05:02:26;0.52;;;0.50;;
29906;SDS011;16776;50.958;10.994;2023-11-21T05:04:52;0.95;;;0.60;;
29906;SDS011;16776;50.958;10.994;2023-11-21T05:07:21;0.73;;;0.52;;
29906;SDS011;16776;50.958;10.994;2023-11-21T05:09:48;1.30;;;0.75;;
29906;SDS011;16776;50.958;10.994;2023-11-21T05:12:15;2.13;;;0.80;;
29906;SDS011;16776;50.958;10.994;2023-11-21T05:14:43;0.77;;;0.70;;
29906;SDS011;16776;50.958;10.994;2023-11-21T05:17:09;0.60;;;0.60;;
29906;SDS011;16776;50.958;10.994;2023-11-21T05:19:36;2.72;;;0.70;;
29906;SDS011;16776;50.958;10.994;2023-11-21T05:22:03;2.42;;;0.60;;
29906;SDS011;16776;50.958;10.994;2023-11-21T05:24:30;2.25;;;0.80;;
29906;SDS011;16776;50.958;10.994;2023-11-21T05:26:57;1.05;;;0.80;;
29906;SDS011;16776;50.958;10.994;2023-11-21T05:29:24;2.55;;;0.73;;
29906;SDS011;16776;50.958;10.994;2023-11-21T05:31:52;0.90;;;0.57;;
29906;SDS011;16776;50.958;10.994;2023-11-21T05:34:19;1.52;;;0.90;;
29906;SDS011;16776;50.958;10.994;2023-11-21T05:36:45;0.70;;;0.70;;
29906;SDS011;16776;50.958;10.994;2023-11-21T05:39:12;0.70;;;0.70;;
29906;SDS011;16776;50.958;10.994;2023-11-21T05:41:42;0.93;;;0.80;;
29906;SDS011;16776;50.958;10.994;2023-11-21T05:44:08;0.90;;;0.90;;
29906;SDS011;16776;50.958;10.994;2023-11-21T05:46:35;0.95;;;0.85;;
29906;SDS011;16776;50.958;10.994;2023-11-21T05:49:03;0.98;;;0.90;;
29906;SDS011;16776;50.958;10.994;2023-11-21T05:51:29;0.70;;;0.70;;
29906;SDS011;16776;50.958;10.994;2023-11-21T05:53:56;0.85;;;0.70;;
29906;SDS011;16776;50.958;10.994;2023-11-21T05:56:23;1.02;;;0.60;;
29906;SDS011;16776;50.958;10.994;2023-11-21T05:58:49;0.98;;;0.50;;
29906;SDS011;16776;50.958;10.994;2023-11-21T06:01:16;0.70;;;0.70;;
29906;SDS011;16776;50.958;10.994;2023-11-21T06:03:42;1.23;;;1.10;;
29906;SDS011;16776;50.958;10.994;2023-11-21T06:06:12;1.20;;;0.77;;
29906;SDS011;16776;50.958;10.994;2023-11-21T06:08:38;1.58;;;1.10;;
29906;SDS011;16776;50.958;10.994;2023-11-21T06:11:05;1.00;;;0.90;;
29906;SDS011;16776;50.958;10.994;2023-11-21T06:13:31;1.65;;;1.45;;
29906;SDS011;16776;50.958;10.994;2023-11-21T06:15:58;1.10;;;1.00;;
29906;SDS011;16776;50.958;10.994;2023-11-21T06:18:25;1.90;;;1.05;;
29906;SDS011;16776;50.958;10.994;2023-11-21T06:20:52;1.30;;;1.00;;
29906;SDS011;16776;50.958;10.994;2023-11-21T06:23:20;1.15;;;1.02;;
29906;SDS011;16776;50.958;10.994;2023-11-21T06:25:46;0.68;;;0.68;;
29906;SDS011;16776;50.958;10.994;2023-11-21T06:28:13;1.15;;;0.63;;
29906;SDS011;16776;50.958;10.994;2023-11-21T06:30:42;0.63;;;0.60;;
29906;SDS011;16776;50.958;10.994;2023-11-21T06:33:10;1.42;;;0.95;;
29906;SDS011;16776;50.958;10.994;2023-11-21T06:35:36;0.77;;;0.70;;
29906;SDS011;16776;50.958;10.994;2023-11-21T06:38:03;0.95;;;0.85;;
29906;SDS011;16776;50.958;10.994;2023-11-21T06:40:31;0.55;;;0.55;;
29906;SDS011;16776;50.958;10.994;2023-11-21T06:42:58;0.70;;;0.70;;
29906;SDS011;16776;50.958;10.994;2023-11-21T06:45:25;0.65;;;0.52;;
29906;SDS011;16776;50.958;10.994;2023-11-21T06:47:52;0.38;;;0.38;;
29906;SDS011;16776;50.958;10.994;2023-11-21T06:50:19;0.88;;;0.60;;
29906;SDS011;16776;50.958;10.994;2023-11-21T06:52:46;0.95;;;0.75;;
29906;SDS011;16776;50.958;10.994;2023-11-21T06:55:13;1.20;;;0.68;;
29906;SDS011;16776;50.958;10.994;2023-11-21T06:57:42;0.73;;;0.70;;
29906;SDS011;16776;50.958;10.994;2023-11-21T07:00:10;0.80;;;0.70;;
29906;SDS011;16776;50.958;10.994;2023-11-21T07:02:37;1.73;;;0.95;;
29906;SDS011;16776;50.958;10.994;2023-11-21T07:05:04;1.80;;;1.38;;
29906;SDS011;16776;50.958;10.994;2023-11-21T07:07:31;2.58;;;2.00;;
29906;SDS011;16776;50.958;10.994;2023-11-21T07:10:00;2.30;;;2.08;;
29906;SDS011;16776;50.958;10.994;2023-11-21T07:12:28;2.40;;;1.70;;
29906;SDS011;16776;50.958;10.994;2023-11-21T07:14:56;1.98;;;1.80;;
29906;SDS011;16776;50.958;10.994;2023-11-21T07:17:23;2.17;;;1.20;;
29906;SDS011;16776;50.958;10.994;2023-11-21T07:19:49;1.70;;;1.15;;
29906;SDS011;16776;50.958;10.994;2023-11-21T07:22:16;1.67;;;1.23;;
29906;SDS011;16776;50.958;10.994;2023-11-21T07:24:47;3.03;;;1.10;;
29906;SDS011;16776;50.958;10.994;2023-11-21T07:27:14;1.58;;;1.13;;
29906;SDS011;16776;50.958;10.994;2023-11-21T07:29:41;0.98;;;0.90;;
29906;SDS011;16776;50.958;10.994;2023-11-21T07:32:08;0.65;;;0.65;;
29906;SDS011;16776;50.958;10.994;2023-11-21T07:34:35;1.10;;;0.85;;
29906;SDS011;16776;50.958;10.994;2023-11-21T07:37:05;0.57;;;0.45;;
29906;SDS011;16776;50.958;10.994;2023-11-21T07:39:31;0.68;;;0.68;;
29906;SDS011;16776;50.958;10.994;2023-11-21T07:41:58;0.80;;;0.80;;
29906;SDS011;16776;50.958;10.994;2023-11-21T07:44:24;0.77;;;0.77;;
29906;SDS011;16776;50.958;10.994;2023-11-21T07:46:51;0.50;;;0.50;;
29906;SDS011;16776;50.958;10.994;2023-11-21T07:49:22;1.02;;;0.90;;
29906;SDS011;16776;50.958;10.994;2023-11-21T07:51:49;0.70;;;0.70;;
29906;SDS011;16776;50.958;10.994;2023-11-21T07:54:15;0.75;;;0.50;;
29906;SDS011;16776;50.958;10.994;2023-11-21T07:56:42;0.50;;;0.45;;
29906;SDS011;16776;50.958;10.994;2023-11-21T07:59:10;0.60;;;0.60;;
29906;SDS011;16776;50.958;10.994;2023-11-21T08:01:37;0.95;;;0.75;;
29906;SDS011;16776;50.958;10.994;2023-11-21T08:04:05;0.52;;;0.52;;
29906;SDS011;16776;50.958;10.994;2023-11-21T08:06:33;0.70;;;0.60;;
29906;SDS011;16776;50.958;10.994;2023-11-21T08:09:00;0.55;;;0.55;;
29906;SDS011;16776;50.958;10.994;2023-11-21T08:11:26;1.70;;;0.68;;
29906;SDS011;16776;50.958;10.994;2023-11-21T08:13:54;0.57;;;0.57;;
29906;SDS011;16776;50.958;10.994;2023-11-21T08:16:21;0.65;;;0.65;;
29906;SDS011;16776;50.958;10.994;2023-11-21T08:18:49;0.63;;;0.63;;
29906;SDS011;16776;50.958;10.994;2023-11-21T08:21:16;0.75;;;0.70;;
29906;SDS011;16776;50.958;10.994;2023-11-21T08:23:43;0.85;;;0.80;;
29906;SDS011;16776;50.958;10.994;2023-11-21T08:26:10;0.70;;;0.70;;
29906;SDS011;16776;50.958;10.994;2023-11-21T08:28:36;0.70;;;0.70;;
29906;SDS011;16776;50.958;10.994;2023-11-21T08:31:03;0.65;;;0.60;;
29906;SDS011;16776;50.958;10.994;2023-11-21T08:33:30;0.60;;;0.60;;
29906;SDS011;16776;50.958;10.994;2023-11-21T08:35:57;0.80;;;0.80;;
29906;SDS011;16776;50.958;10.994;2023-11-21T08:38:26;1.00;;;0.73;;
29906;SDS011;16776;50.958;10.994;2023-11-21T08:40:55;1.08;;;1.00;;
29906;SDS011;16776;50.958;10.994;2023-11-21T08:43:22;0.65;;;0.65;;
29906;SDS011;16776;50.958;10.994;2023-11-21T08:45:49;1.02;;;0.80;;
29906;SDS011;16776;50.958;10.994;2023-11-21T08:48:16;1.80;;;1.05;;
29906;SDS011;16776;50.958;10.994;2023-11-21T08:50:42;0.88;;;0.73;;
29906;SDS011;16776;50.958;10.994;2023-11-21T08:53:09;1.60;;;1.10;;
29906;SDS011;16776;50.958;10.994;2023-11-21T08:55:36;1.35;;;1.00;;
29906;SDS011;16776;50.958;10.994;2023-11-21T08:58:04;2.20;;;1.20;;
29906;SDS011;16776;50.958;10.994;2023-11-21T09:00:31;1.42;;;1.33;;
29906;SDS011;16776;50.958;10.994;2023-11-21T09:02:58;1.58;;;1.42;;
29906;SDS011;16776;50.958;10.994;2023-11-21T09:05:25;1.23;;;1.13;;
29906;SDS011;16776;50.958;10.994;2023-11-21T09:07:51;2.17;;;1.50;;
29906;SDS011;16776;50.958;10.994;2023-11-21T09:10:18;1.77;;;1.42;;
29906;SDS011;16776;50.958;10.994;2023-11-21T09:12:45;1.60;;;1.27;;
29906;SDS011;16776;50.958;10.994;2023-11-21T09:15:13;1.60;;;1.50;;
29906;SDS011;16776;50.958;10.994;2023-11-21T09:17:40;1.48;;;1.20;;
29906;SDS011;16776;50.958;10.994;2023-11-21T09:20:07;1.83;;;1.48;;
29906;SDS011;16776;50.958;10.994;2023-11-21T09:22:35;1.33;;;1.20;;
29906;SDS011;16776;50.958;10.994;2023-11-21T09:25:01;1.52;;;1.38;;
29906;SDS011;16776;50.958;10.994;2023-11-21T09:27:30;2.22;;;1.42;;
29906;SDS011;16776;50.958;10.994;2023-11-21T09:29:56;1.50;;;1.23;;
29906;SDS011;16776;50.958;10.994;2023-11-21T09:32:24;2.22;;;1.65;;
29906;SDS011;16776;50.958;10.994;2023-11-21T09:34:51;1.90;;;1.70;;
29906;SDS011;16776;50.958;10.994;2023-11-21T09:37:19;2.58;;;1.90;;
29906;SDS011;16776;50.958;10.994;2023-11-21T09:39:45;1.42;;;1.30;;
29906;SDS011;16776;50.958;10.994;2023-11-21T09:42:13;2.10;;;1.63;;
29906;SDS011;16776;50.958;10.994;2023-11-21T09:44:45;1.30;;;1.13;;
29906;SDS011;16776;50.958;10.994;2023-11-21T09:47:18;1.00;;;0.98;;
29906;SDS011;16776;50.958;10.994;2023-11-21T09:49:48;1.60;;;1.45;;
29906;SDS011;16776;50.958;10.994;2023-11-21T09:52:18;2.72;;;1.33;;
29906;SDS011;16776;50.958;10.994;2023-11-21T09:54:50;2.45;;;1.40;;
29906;SDS011;16776;50.958;10.994;2023-11-21T09:57:19;2.20;;;1.48;;
29906;SDS011;16776;50.958;10.994;2023-11-21T09:59:48;1.65;;;1.45;;
29906;SDS011;16776;50.958;10.994;2023-11-21T10:02:17;2.05;;;1.50;;
29906;SDS011;16776;50.958;10.994;2023-11-21T10:04:47;1.73;;;1.50;;
29906;SDS011;16776;50.958;10.994;2023-11-21T10:07:14;2.33;;;1.85;;
29906;SDS011;16776;50.958;10.994;2023-11-21T10:09:45;2.95;;;2.10;;
29906;SDS011;16776;50.958;10.994;2023-11-21T10:12:13;1.83;;;1.55;;
29906;SDS011;16776;50.958;10.994;2023-11-21T10:14:41;2.67;;;1.83;;
29906;SDS011;16776;50.958;10.994;2023-11-21T10:17:09;2.05;;;1.65;;
29906;SDS011;16776;50.958;10.994;2023-11-21T10:19:37;2.90;;;2.03;;
29906;SDS011;16776;50.958;10.994;2023-11-21T10:22:06;3.05;;;1.88;;
29906;SDS011;16776;50.958;10.994;2023-11-21T10:24:34;1.83;;;1.73;;
29906;SDS011;16776;50.958;10.994;2023-11-21T10:27:04;1.80;;;1.70;;
29906;SDS011;16776;50.958;10.994;2023-11-21T10:29:30;2.03;;;1.80;;
29906;SDS011;16776;50.958;10.994;2023-11-21T10:32:01;1.50;;;1.40;;
29906;SDS011;16776;50.958;10.994;2023-11-21T10:34:28;1.90;;;1.55;;
29906;SDS011;16776;50.958;10.994;2023-11-21T10:36:54;2.47;;;1.83;;
29906;SDS011;16776;50.958;10.994;2023-11-21T10:39:24;2.50;;;1.73;;
29906;SDS011;16776;50.958;10.994;2023-11-21T10:41:55;2.78;;;1.77;;
29906;SDS011;16776;50.958;10.994;2023-11-21T10:44:22;3.08;;;1.95;;
29906;SDS011;16776;50.958;10.994;2023-11-21T10:46:49;2.13;;;1.40;;
29906;SDS011;16776;50.958;10.994;2023-11-21T10:49:17;2.60;;;1.45;;
29906;SDS011;16776;50.958;10.994;2023-11-21T10:51:44;2.65;;;1.48;;
29906;SDS011;16776;50.958;10.994;2023-11-21T10:54:10;2.22;;;2.03;;
29906;SDS011;16776;50.958;10.994;2023-11-21T10:56:39;2.30;;;2.10;;
29906;SDS011;16776;50.958;10.994;2023-11-21T10:59:09;3.47;;;2.10;;
29906;SDS011;16776;50.958;10.994;2023-11-21T11:01:39;2.92;;;2.05;;
29906;SDS011;16776;50.958;10.994;2023-11-21T11:04:08;2.80;;;2.03;;
29906;SDS011;16776;50.958;10.994;2023-11-21T11:06:40;3.42;;;1.92;;
29906;SDS011;16776;50.958;10.994;2023-11-21T11:09:09;2.85;;;2.17;;
29906;SDS011;16776;50.958;10.994;2023-11-21T11:11:40;1.58;;;1.45;;
29906;SDS011;16776;50.958;10.994;2023-11-21T11:14:10;3.05;;;2.30;;
29906;SDS011;16776;50.958;10.994;2023-11-21T11:16:38;2.92;;;2.00;;
29906;SDS011;16776;50.958;10.994;2023-11-21T11:19:06;2.50;;;1.98;;
29906;SDS011;16776;50.958;10.994;2023-11-21T11:21:37;2.97;;;1.90;;
29906;SDS011;16776;50.958;10.994;2023-11-21T11:24:17;2.35;;;1.90;;
29906;SDS011;16776;50.958;10.994;2023-11-21T11:26:58;3.15;;;2.00;;
29906;SDS011;16776;50.958;10.994;2023-11-21T11:29:35;2.85;;;1.67;;
29906;SDS011;16776;50.958;10.994;2023-11-21T11:32:12;1.92;;;1.70;;
29906;SDS011;16776;50.958;10.994;2023-11-21T11:34:48;2.38;;;1.95;;
29906;SDS011;16776;50.958;10.994;2023-11-21T11:37:20;2.95;;;1.98;;
29906;SDS011;16776;50.958;10.994;2023-11-21T11:39:48;2.72;;;2.03;;
29906;SDS011;16776;50.958;10.994;2023-11-21T11:42:17;2.88;;;2.17;;
29906;SDS011;16776;50.958;10.994;2023-11-21T11:44:51;3.67;;;2.22;;
29906;SDS011;16776;50.958;10.994;2023-11-21T11:47:20;3.42;;;2.22;;
29906;SDS011;16776;50.958;10.994;2023-11-21T11:50:02;3.25;;;2.25;;
29906;SDS011;16776;50.958;10.994;2023-11-21T11:52:36;2.28;;;1.60;;
29906;SDS011;16776;50.958;10.994;2023-11-21T11:55:05;2.58;;;2.05;;
29906;SDS011;16776;50.958;10.994;2023-11-21T11:57:36;2.00;;;1.75;;
29906;SDS011;16776;50.958;10.994;2023-11-21T12:00:11;4.40;;;2.22;;
29906;SDS011;16776;50.958;10.994;2023-11-21T12:02:41;3.58;;;1.60;;
29906;SDS011;16776;50.958;10.994;2023-11-21T12:05:09;2.53;;;1.60;;
29906;SDS011;16776;50.958;10.994;2023-11-21T12:07:41;1.88;;;1.58;;
29906;SDS011;16776;50.958;10.994;2023-11-21T12:10:10;2.42;;;1.50;;
29906;SDS011;16776;50.958;10.994;2023-11-21T12:12:42;2.58;;;1.80;;
29906;SDS011;16776;50.958;10.994;2023-11-21T12:15:10;2.17;;;1.20;;
29906;SDS011;16776;50.958;10.994;2023-11-21T12:17:37;2.80;;;1.33;;
29906;SDS011;16776;50.958;10.994;2023-11-21T12:20:05;1.73;;;1.40;;
29906;SDS011;16776;50.958;10.994;2023-11-21T12:22:39;1.42;;;1.15;;
29906;SDS011;16776;50.958;10.994;2023-11-21T12:25:08;1.65;;;1.27;;
29906;SDS011;16776;50.958;10.994;2023-11-21T12:27:34;1.33;;;1.10;;
29906;SDS011;16776;50.958;10.994;2023-11-21T12:30:03;1.60;;;1.38;;
29906;SDS011;16776;50.958;10.994;2023-11-21T12:32:30;1.48;;;1.33;;
29906;SDS011;16776;50.958;10.994;2023-11-21T12:34:57;1.30;;;1.15;;
29906;SDS011;16776;50.958;10.994;2023-11-21T12:37:24;1.65;;;1.08;;
29906;SDS011;16776;50.958;10.994;2023-11-21T12:39:50;0.93;;;0.90;;
29906;SDS011;16776;50.958;10.994;2023-11-21T12:42:19;0.82;;;0.77;;
29906;SDS011;16776;50.958;10.994;2023-11-21T12:44:46;1.10;;;1.00;;
29906;SDS011;16776;50.958;10.994;2023-11-21T12:47:17;1.10;;;0.85;;
29906;SDS011;16776;50.958;10.994;2023-11-21T12:49:46;1.83;;;0.82;;
29906;SDS011;16776;50.958;10.994;2023-11-21T12:52:13;1.25;;;0.60;;
29906;SDS011;16776;50.958;10.994;2023-11-21T12:54:40;1.38;;;0.65;;
29906;SDS011;16776;50.958;10.994;2023-11-21T12:57:06;1.02;;;0.80;;
29906;SDS011;16776;50.958;10.994;2023-11-21T12:59:33;1.05;;;0.90;;
29906;SDS011;16776;50.958;10.994;2023-11-21T13:02:00;1.23;;;0.68;;
29906;SDS011;16776;50.958;10.994;2023-11-21T13:04:32;1.23;;;0.80;;
29906;SDS011;16776;50.958;10.994;2023-11-21T13:07:02;0.90;;;0.73;;
29906;SDS011;16776;50.958;10.994;2023-11-21T13:09:31;1.33;;;1.23;;
29906;SDS011;16776;50.958;10.994;2023-11-21T13:11:59;2.72;;;1.70;;
29906;SDS011;16776;50.958;10.994;2023-11-21T13:14:28;0.98;;;0.90;;
29906;SDS011;16776;50.958;10.994;2023-11-21T13:16:56;2.08;;;1.33;;
29906;SDS011;16776;50.958;10.994;2023-11-21T13:19:23;1.45;;;1.10;;
29906;SDS011;16776;50.958;10.994;2023-11-21T13:21:51;3.08;;;1.52;;
29906;SDS011;16776;50.958;10.994;2023-11-21T13:24:19;1.85;;;1.42;;
29906;SDS011;16776;50.958;10.994;2023-11-21T13:26:46;1.73;;;1.42;;
29906;SDS011;16776;50.958;10.994;2023-11-21T13:29:14;1.02;;;0.88;;
29906;SDS011;16776;50.958;10.994;2023-11-21T13:31:41;1.10;;;0.80;;
29906;SDS011;16776;50.958;10.994;2023-11-21T13:34:08;1.25;;;0.93;;
29906;SDS011;16776;50.958;10.994;2023-11-21T13:36:34;1.02;;;0.93;;
29906;SDS011;16776;50.958;10.994;2023-11-21T13:39:03;1.02;;;0.85;;
29906;SDS011;16776;50.958;10.994;2023-11-21T13:41:36;1.23;;;0.90;;
29906;SDS011;16776;50.958;10.994;2023-11-21T13:44:03;4.07;;;1.15;;
29906;SDS011;16776;50.958;10.994;2023-11-21T13:46:40;1.20;;;1.10;;
29906;SDS011;16776;50.958;10.994;2023-11-21T13:49:07;1.05;;;0.75;;
29906;SDS011;16776;50.958;10.994;2023-11-21T13:51:35;1.20;;;0.73;;
29906;SDS011;16776;50.958;10.994;2023-11-21T13:54:07;1.65;;;1.25;;
29906;SDS011;16776;50.958;10.994;2023-11-21T13:56:35;2.72;;;1.70;;
29906;SDS011;16776;50.958;10.994;2023-11-21T13:59:02;2.08;;;1.50;;
29906;SDS011;16776;50.958;10.994;2023-11-21T14:01:41;3.50;;;1.58;;
29906;SDS011;16776;50.958;10.994;2023-11-21T14:04:19;2.25;;;1.40;;
29906;SDS011;16776;50.958;10.994;2023-11-21T14:07:00;1.98;;;1.38;;
29906;SDS011;16776;50.958;10.994;2023-11-21T14:09:43;2.03;;;1.50;;
29906;SDS011;16776;50.958;10.994;2023-11-21T14:12:10;2.15;;;1.35;;
29906;SDS011;16776;50.958;10.994;2023-11-21T14:14:38;3.30;;;2.20;;
29906;SDS011;16776;50.958;10.994;2023-11-21T14:17:05;2.72;;;2.00;;
29906;SDS011;16776;50.958;10.994;2023-11-21T14:19:32;2.65;;;2.42;;
29906;SDS011;16776;50.958;10.994;2023-11-21T14:22:01;2.92;;;2.05;;
29906;SDS011;16776;50.958;10.994;2023-11-21T14:24:28;2.95;;;2.13;;
29906;SDS011;16776;50.958;10.994;2023-11-21T14:26:57;4.15;;;2.72;;
29906;SDS011;16776;50.958;10.994;2023-11-21T14:29:24;5.47;;;3.53;;
29906;SDS011;16776;50.958;10.994;2023-11-21T14:31:52;6.68;;;3.88;;
29906;SDS011;16776;50.958;10.994;2023-11-21T14:34:21;5.57;;;3.83;;
29906;SDS011;16776;50.958;10.994;2023-11-21T14:36:48;6.50;;;4.30;;